createdAt,value
2022-09-22T00:01:25.759Z,6.56
2022-09-22T00:03:55.200Z,6.51
2022-09-22T00:06:30.225Z,6.58
2022-09-22T00:09:02.629Z,6.50
2022-09-22T00:11:31.735Z,6.45
2022-09-22T00:14:01.450Z,6.38
2022-09-22T00:16:37.389Z,6.42
2022-09-22T00:19:09.431Z,6.45
2022-09-22T00:21:36.656Z,6.45
2022-09-22T00:24:04.949Z,6.32
2022-09-22T00:26:31.625Z,6.35
2022-09-22T00:28:58.553Z,6.32
2022-09-22T00:31:25.990Z,6.33
2022-09-22T00:33:53.965Z,6.34
2022-09-22T00:36:24.103Z,6.34
2022-09-22T00:38:51.667Z,6.30
2022-09-22T00:41:21.608Z,6.27
2022-09-22T00:43:50.477Z,6.24
2022-09-22T00:46:25.959Z,6.32
2022-09-22T00:48:59.312Z,6.33
2022-09-22T00:51:29.917Z,6.26
2022-09-22T00:53:57.305Z,6.30
2022-09-22T00:56:28.592Z,6.28
2022-09-22T00:59:03.634Z,6.34
2022-09-22T01:01:30.343Z,6.32
2022-09-22T01:03:57.280Z,6.30
2022-09-22T01:06:26.891Z,6.35
2022-09-22T01:08:54.588Z,6.31
2022-09-22T01:11:21.421Z,6.28
2022-09-22T01:14:06.890Z,6.33
2022-09-22T01:16:51.858Z,6.35
2022-09-22T01:19:42.704Z,6.34
2022-09-22T01:22:34.125Z,6.29
2022-09-22T01:25:09.974Z,6.22
2022-09-22T01:27:51.886Z,6.11
2022-09-22T01:30:20.910Z,6.07
2022-09-22T01:33:07.021Z,6.20
2022-09-22T01:35:48.676Z,6.26
2022-09-22T01:38:55.788Z,6.20
2022-09-22T01:41:37.748Z,6.19
2022-09-22T01:44:09.880Z,6.13
2022-09-22T01:46:54.595Z,6.11
2022-09-22T01:49:23.186Z,6.01
2022-09-22T01:51:57.283Z,6.05
2022-09-22T01:54:39.339Z,6.20
2022-09-22T01:57:38.152Z,6.18
2022-09-22T02:00:08.394Z,6.19
2022-09-22T02:03:08.356Z,6.24
2022-09-22T02:05:49.790Z,6.26
2022-09-22T02:08:42.625Z,6.26
2022-09-22T02:11:13.988Z,6.31
2022-09-22T02:13:41.892Z,6.29
2022-09-22T02:16:09.355Z,6.25
2022-09-22T02:18:56.240Z,6.22
2022-09-22T02:21:25.232Z,6.18
2022-09-22T02:23:51.850Z,6.11
2022-09-22T02:26:28.619Z,6.07
2022-09-22T02:29:03.507Z,6.09
2022-09-22T02:31:33.374Z,6.05
2022-09-22T02:34:01.055Z,5.95
2022-09-22T02:36:45.984Z,5.84
2022-09-22T02:39:22.068Z,5.77
2022-09-22T02:42:03.813Z,5.64
2022-09-22T02:44:44.273Z,5.75
2022-09-22T02:47:19.327Z,5.79
2022-09-22T02:49:46.067Z,5.73
2022-09-22T02:52:19.343Z,5.75
2022-09-22T02:54:45.972Z,5.73
2022-09-22T02:57:12.578Z,5.79
2022-09-22T02:59:39.235Z,5.76
2022-09-22T03:02:06.012Z,5.73
2022-09-22T03:04:32.772Z,5.63
2022-09-22T03:06:59.477Z,5.52
2022-09-22T03:09:26.143Z,5.61
2022-09-22T03:11:52.839Z,5.58
2022-09-22T03:14:19.491Z,5.58
2022-09-22T03:16:46.172Z,5.51
2022-09-22T03:19:12.871Z,5.47
2022-09-22T03:21:39.494Z,5.47
2022-09-22T03:24:06.211Z,5.54
2022-09-22T03:26:34.884Z,5.42
2022-09-22T03:29:01.578Z,5.29
2022-09-22T03:31:28.485Z,5.27
2022-09-22T03:33:55.146Z,5.30
2022-09-22T03:36:21.912Z,5.27
2022-09-22T03:38:48.736Z,5.19
2022-09-22T03:41:15.411Z,5.17
2022-09-22T03:43:42.263Z,5.31
2022-09-22T03:46:09.080Z,5.37
2022-09-22T03:48:36.139Z,5.27
2022-09-22T03:51:02.973Z,5.14
2022-09-22T03:53:30.198Z,5.15
2022-09-22T03:56:11.159Z,5.17
2022-09-22T03:58:38.550Z,5.22
2022-09-22T04:01:06.176Z,5.31
2022-09-22T04:03:34.041Z,5.26
2022-09-22T04:06:00.981Z,5.25
2022-09-22T04:08:27.960Z,5.27
2022-09-22T04:10:54.938Z,5.36
2022-09-22T04:13:21.542Z,5.37
2022-09-22T04:15:48.277Z,5.26
2022-09-22T04:18:16.179Z,5.13
2022-09-22T04:20:44.343Z,5.05
2022-09-22T04:23:12.062Z,4.98
2022-09-22T04:25:38.783Z,4.97
2022-09-22T04:28:06.318Z,5.05
2022-09-22T04:30:34.097Z,5.08
2022-09-22T04:33:01.187Z,5.02
2022-09-22T04:35:28.522Z,5.01
2022-09-22T04:37:58.292Z,5.03
2022-09-22T04:40:25.600Z,5.10
2022-09-22T04:42:52.542Z,5.12
2022-09-22T04:45:19.324Z,5.13
2022-09-22T04:47:50.051Z,5.05
2022-09-22T04:50:17.820Z,5.02
2022-09-22T04:52:48.811Z,5.00
2022-09-22T04:55:16.391Z,5.03
2022-09-22T04:57:48.263Z,5.04
2022-09-22T05:00:19.188Z,5.07
2022-09-22T05:02:46.007Z,5.11
2022-09-22T05:05:13.567Z,5.11
2022-09-22T05:07:46.622Z,5.05
2022-09-22T05:10:15.050Z,4.99
2022-09-22T05:12:42.529Z,4.99
2022-09-22T05:15:10.653Z,4.97
2022-09-22T05:17:37.512Z,5.04
2022-09-22T05:20:05.228Z,5.08
2022-09-22T05:22:35.217Z,5.07
2022-09-22T05:25:04.732Z,5.05
2022-09-22T05:27:31.537Z,5.04
2022-09-22T05:29:58.121Z,5.04
2022-09-22T05:32:24.804Z,5.24
2022-09-22T05:34:51.438Z,5.12
2022-09-22T05:37:18.086Z,5.00
2022-09-22T05:39:44.718Z,4.91
2022-09-22T05:42:11.371Z,4.90
2022-09-22T05:44:38.011Z,4.94
2022-09-22T05:47:04.636Z,4.91
2022-09-22T05:49:31.213Z,4.97
2022-09-22T05:51:58.997Z,4.95
2022-09-22T05:54:25.710Z,4.96
2022-09-22T05:56:52.369Z,5.09
2022-09-22T05:59:19.062Z,5.20
2022-09-22T06:01:45.736Z,5.35
2022-09-22T06:04:12.426Z,5.27
2022-09-22T06:06:39.095Z,5.20
2022-09-22T06:09:05.973Z,5.36
2022-09-22T06:11:32.783Z,5.59
2022-09-22T06:13:59.463Z,5.80
2022-09-22T06:16:26.236Z,6.03
2022-09-22T06:18:52.916Z,6.05
2022-09-22T06:21:20.908Z,6.01
2022-09-22T06:23:47.624Z,6.06
2022-09-22T06:26:14.264Z,6.08
2022-09-22T06:28:40.912Z,6.13
2022-09-22T06:31:07.543Z,6.22
2022-09-22T06:33:34.207Z,6.30
2022-09-22T06:36:01.972Z,6.37
2022-09-22T06:38:32.049Z,6.50
2022-09-22T06:41:01.833Z,6.58
2022-09-22T06:43:28.692Z,6.78
2022-09-22T06:45:59.643Z,6.91
2022-09-22T06:48:26.300Z,6.99
2022-09-22T06:50:53.935Z,7.16
2022-09-22T06:53:24.661Z,7.20
2022-09-22T06:55:55.893Z,7.04
2022-09-22T06:58:22.673Z,7.06
2022-09-22T07:00:49.619Z,7.08
2022-09-22T07:03:22.944Z,6.99
2022-09-22T07:05:53.886Z,7.28
2022-09-22T07:08:21.903Z,7.41
2022-09-22T07:10:55.409Z,7.53
2022-09-22T07:13:22.966Z,7.70
2022-09-22T07:15:49.696Z,7.86
2022-09-22T07:18:16.394Z,7.91
2022-09-22T07:20:45.466Z,8.00
2022-09-22T07:23:21.491Z,8.11
2022-09-22T07:25:56.432Z,8.44
2022-09-22T07:28:25.996Z,8.59
2022-09-22T07:30:52.692Z,8.75
2022-09-22T07:33:20.006Z,8.95
2022-09-22T07:35:46.697Z,8.91
2022-09-22T07:38:13.346Z,9.10
2022-09-22T07:40:40.029Z,9.23
2022-09-22T07:43:06.731Z,9.40
2022-09-22T07:45:33.351Z,9.54
2022-09-22T07:48:18.743Z,9.77
2022-09-22T07:50:53.974Z,9.88
2022-09-22T07:53:21.366Z,10.03
2022-09-22T07:55:48.544Z,10.11
2022-09-22T07:58:17.349Z,10.13
2022-09-22T08:00:44.392Z,10.19
2022-09-22T08:03:11.063Z,10.33
2022-09-22T08:05:39.534Z,10.48
2022-09-22T08:08:08.125Z,10.45
2022-09-22T08:10:35.672Z,10.55
2022-09-22T08:13:04.670Z,10.70
2022-09-22T08:15:31.611Z,10.84
2022-09-22T08:17:58.423Z,10.93
2022-09-22T08:20:30.107Z,11.01
2022-09-22T08:23:03.338Z,11.28
2022-09-22T08:25:30.592Z,11.41
2022-09-22T08:27:57.446Z,11.64
2022-09-22T08:30:24.341Z,11.58
2022-09-22T08:32:51.036Z,11.91
2022-09-22T08:35:18.520Z,12.00
2022-09-22T08:37:45.784Z,12.20
2022-09-22T08:40:18.965Z,12.41
2022-09-22T08:42:45.778Z,12.56
2022-09-22T08:45:44.324Z,12.69
2022-09-22T08:48:36.862Z,12.85
2022-09-22T08:51:29.139Z,13.06
2022-09-22T08:54:00.991Z,13.13
2022-09-22T08:56:37.050Z,13.23
2022-09-22T08:59:23.223Z,13.39
2022-09-22T09:02:05.183Z,13.49
2022-09-22T09:04:48.080Z,13.63
2022-09-22T09:07:33.187Z,13.71
2022-09-22T09:10:25.338Z,13.84
2022-09-22T09:13:17.360Z,14.05
2022-09-22T09:16:02.252Z,14.29
2022-09-22T09:18:33.407Z,14.54
2022-09-22T09:21:04.376Z,14.46
2022-09-22T09:26:51.129Z,14.66
2022-09-22T09:29:22.079Z,14.70
2022-09-22T09:31:53.404Z,14.97
2022-09-22T09:34:22.130Z,14.98
2022-09-22T09:36:58.557Z,14.79
2022-09-22T09:39:31.106Z,14.89
2022-09-22T09:41:57.644Z,14.87
2022-09-22T09:44:32.425Z,15.02
2022-09-22T09:47:21.338Z,15.09
2022-09-22T09:49:52.708Z,15.00
2022-09-22T09:52:21.048Z,15.12
2022-09-22T09:54:48.462Z,14.88
2022-09-22T09:57:17.218Z,15.11
2022-09-22T10:00:04.668Z,15.12
2022-09-22T10:02:51.743Z,15.15
2022-09-22T10:05:18.295Z,15.00
2022-09-22T10:07:49.869Z,14.80
2022-09-22T10:10:34.501Z,14.80
2022-09-22T10:13:03.894Z,14.91
2022-09-22T10:15:35.921Z,15.00
2022-09-22T10:18:03.546Z,15.20
2022-09-22T10:20:32.361Z,15.29
2022-09-22T10:23:22.173Z,15.11
2022-09-22T10:25:50.706Z,15.25
2022-09-22T10:28:19.899Z,15.22
2022-09-22T10:31:25.016Z,15.36
2022-09-22T10:34:00.661Z,15.23
2022-09-22T10:36:30.857Z,15.34
2022-09-22T10:38:59.785Z,15.36
2022-09-22T10:41:32.166Z,15.18
2022-09-22T10:47:27.266Z,15.29
2022-09-22T10:50:19.147Z,15.39
2022-09-22T10:53:17.647Z,15.41
2022-09-22T10:55:56.034Z,15.42
2022-09-22T10:58:36.679Z,15.61
2022-09-22T11:01:15.039Z,15.44
2022-09-22T11:03:57.683Z,15.40
2022-09-22T11:06:59.379Z,15.27
2022-09-22T11:09:49.315Z,15.36
2022-09-22T11:12:43.351Z,15.48
2022-09-22T11:15:18.983Z,15.45
2022-09-22T11:17:58.736Z,15.34
2022-09-22T11:20:33.203Z,15.42
2022-09-22T11:23:18.205Z,15.64
2022-09-22T11:25:48.991Z,15.49
2022-09-22T11:28:56.346Z,15.41
2022-09-22T11:31:46.737Z,15.49
2022-09-22T11:34:43.780Z,15.49
2022-09-22T11:37:27.988Z,15.41
2022-09-22T11:40:17.446Z,15.61
2022-09-22T11:42:59.415Z,15.77
2022-09-22T11:45:36.484Z,15.82
2022-09-22T11:48:18.976Z,15.97
2022-09-22T11:50:57.390Z,16.14
2022-09-22T11:53:44.885Z,16.24
2022-09-22T11:56:23.631Z,16.27
2022-09-22T11:58:52.291Z,16.07
2022-09-22T12:01:23.363Z,15.89
2022-09-22T12:03:55.434Z,15.99
2022-09-22T12:06:26.338Z,15.92
2022-09-22T12:09:03.823Z,15.84
2022-09-22T12:11:36.891Z,15.92
2022-09-22T12:14:04.469Z,15.95
2022-09-22T12:16:58.851Z,15.96
2022-09-22T12:19:40.678Z,15.93
2022-09-22T12:22:20.743Z,16.02
2022-09-22T12:24:47.661Z,15.96
2022-09-22T12:27:26.234Z,15.95
2022-09-22T12:30:01.043Z,16.01
2022-09-22T12:32:39.505Z,16.01
2022-09-22T12:35:07.200Z,16.02
2022-09-22T12:37:36.808Z,15.99
2022-09-22T12:40:28.017Z,16.11
2022-09-22T12:42:54.907Z,16.24
2022-09-22T12:45:42.117Z,16.19
2022-09-22T12:48:14.244Z,16.19
2022-09-22T12:50:43.063Z,16.05
2022-09-22T12:53:12.322Z,16.23
2022-09-22T12:55:39.260Z,16.44
2022-09-22T12:58:34.804Z,16.38
2022-09-22T13:01:32.300Z,16.35
2022-09-22T13:04:12.758Z,16.53
2022-09-22T13:06:39.305Z,16.28
2022-09-22T13:09:06.032Z,16.23
2022-09-22T13:12:18.741Z,16.19
2022-09-22T13:14:59.117Z,16.21
2022-09-22T13:17:48.825Z,16.11
2022-09-22T13:20:30.640Z,16.20
2022-09-22T13:23:17.761Z,16.31
2022-09-22T13:25:44.856Z,16.14
2022-09-22T13:28:27.532Z,16.30
2022-09-22T13:31:22.334Z,16.43
2022-09-22T13:33:49.077Z,16.41
2022-09-22T13:36:18.606Z,16.30
2022-09-22T13:38:45.731Z,16.39
2022-09-22T13:41:14.237Z,16.27
2022-09-22T13:43:42.918Z,16.43
2022-09-22T13:46:37.576Z,16.61
2022-09-22T13:49:07.230Z,16.67
2022-09-22T13:51:35.267Z,16.78
2022-09-22T13:54:04.841Z,16.83
2022-09-22T13:56:32.628Z,16.78
2022-09-22T13:59:02.211Z,16.74
2022-09-22T14:01:30.254Z,16.67
2022-09-22T14:03:57.381Z,16.56
2022-09-22T14:06:26.846Z,16.43
2022-09-22T14:08:54.681Z,16.27
2022-09-22T14:11:32.762Z,16.28
2022-09-22T14:14:01.676Z,16.41
2022-09-22T14:16:39.637Z,16.47
2022-09-22T14:19:24.552Z,16.66
2022-09-22T14:22:06.398Z,16.60
2022-09-22T14:24:35.228Z,16.64
2022-09-22T14:27:07.024Z,16.63
2022-09-22T14:29:47.746Z,16.58
2022-09-22T14:32:33.970Z,16.59
2022-09-22T14:35:04.110Z,16.51
2022-09-22T14:37:33.569Z,16.43
2022-09-22T14:40:03.554Z,16.36
2022-09-22T14:42:33.638Z,16.22
2022-09-22T14:45:09.654Z,16.29
2022-09-22T14:47:41.012Z,16.32
2022-09-22T14:50:11.329Z,16.34
2022-09-22T14:52:42.556Z,16.18
2022-09-22T14:55:31.075Z,16.10
2022-09-22T14:58:13.997Z,16.20
2022-09-22T15:01:09.972Z,16.31
2022-09-22T15:03:38.791Z,16.26
2022-09-22T15:06:09.706Z,16.09
2022-09-22T15:08:36.510Z,15.92
2022-09-22T15:11:03.836Z,15.97
2022-09-22T15:13:38.708Z,16.05
2022-09-22T15:16:27.769Z,16.03
2022-09-22T15:18:55.593Z,15.89
2022-09-22T15:21:29.226Z,15.97
2022-09-22T15:23:58.358Z,16.03
2022-09-22T15:26:26.542Z,16.13
2022-09-22T15:28:57.071Z,16.16
2022-09-22T15:31:27.194Z,16.09
2022-09-22T15:34:00.322Z,15.93
2022-09-22T15:36:30.691Z,15.77
2022-09-22T15:39:01.465Z,15.65
2022-09-22T15:41:28.489Z,15.70
2022-09-22T15:43:55.647Z,15.72
2022-09-22T15:46:38.111Z,15.67
2022-09-22T15:49:15.411Z,15.62
2022-09-22T15:51:42.124Z,15.69
2022-09-22T15:54:17.020Z,15.76
2022-09-22T15:56:45.924Z,15.79
2022-09-22T15:59:16.375Z,15.91
2022-09-22T16:01:44.194Z,15.88
2022-09-22T16:04:10.810Z,15.74
2022-09-22T16:06:39.115Z,15.87
2022-09-22T16:09:06.149Z,15.89
2022-09-22T16:11:33.142Z,15.90
2022-09-22T16:14:08.000Z,15.83
2022-09-22T16:16:35.905Z,15.64
2022-09-22T16:19:02.659Z,15.50
2022-09-22T16:21:31.140Z,15.35
2022-09-22T16:24:02.897Z,15.37
2022-09-22T16:26:31.793Z,15.39
2022-09-22T16:28:59.015Z,15.30
2022-09-22T16:31:25.946Z,15.20
2022-09-22T16:33:57.620Z,15.07
2022-09-22T16:36:26.567Z,14.98
2022-09-22T16:38:53.444Z,14.86
2022-09-22T16:41:31.079Z,14.87
2022-09-22T16:43:58.137Z,14.87
2022-09-22T16:46:33.747Z,14.77
2022-09-22T16:49:04.455Z,14.63
2022-09-22T16:51:50.701Z,14.56
2022-09-22T16:54:18.813Z,14.41
2022-09-22T16:56:47.844Z,14.25
2022-09-22T16:59:19.286Z,14.12
2022-09-22T17:01:46.010Z,13.98
2022-09-22T17:04:16.421Z,13.87
2022-09-22T17:06:43.354Z,13.78
2022-09-22T17:09:11.370Z,13.68
2022-09-22T17:11:40.404Z,13.58
2022-09-22T17:14:12.438Z,13.49
2022-09-22T17:16:52.263Z,13.37
2022-09-22T17:19:21.142Z,13.29
2022-09-22T17:21:49.591Z,13.21
2022-09-22T17:24:16.179Z,13.11
2022-09-22T17:26:49.986Z,13.04
2022-09-22T17:29:18.565Z,12.97
2022-09-22T17:31:48.099Z,12.94
2022-09-22T17:34:15.116Z,12.88
2022-09-22T17:36:41.875Z,12.90
2022-09-22T17:39:10.589Z,12.99
2022-09-22T17:41:44.326Z,12.99
2022-09-22T17:44:11.370Z,12.98
2022-09-22T17:46:58.068Z,12.90
2022-09-22T17:49:43.115Z,12.81
2022-09-22T17:52:42.399Z,12.72
2022-09-22T17:55:20.387Z,12.74
2022-09-22T17:57:47.149Z,12.71
2022-09-22T18:00:21.296Z,12.69
2022-09-22T18:02:49.789Z,12.73
2022-09-22T18:05:19.765Z,12.67
2022-09-22T18:07:49.483Z,12.66
2022-09-22T18:10:19.179Z,12.68
2022-09-22T18:12:45.838Z,12.63
2022-09-22T18:15:13.940Z,12.57
2022-09-22T18:17:43.054Z,12.50
2022-09-22T18:20:12.295Z,12.41
2022-09-22T18:22:48.686Z,12.32
2022-09-22T18:25:21.109Z,12.21
2022-09-22T18:27:50.458Z,12.16
2022-09-22T18:30:19.464Z,12.04
2022-09-22T18:32:47.633Z,11.99
2022-09-22T18:35:14.396Z,11.99
2022-09-22T18:37:41.124Z,11.94
2022-09-22T18:40:09.386Z,11.89
2022-09-22T18:42:36.879Z,11.80
2022-09-22T18:45:04.242Z,11.71
2022-09-22T18:47:30.868Z,11.63
2022-09-22T18:49:59.363Z,11.57
2022-09-22T18:52:25.991Z,11.52
2022-09-22T18:54:54.209Z,11.47
2022-09-22T18:57:22.566Z,11.43
2022-09-22T18:59:51.257Z,11.40
2022-09-22T19:02:21.595Z,11.37
2022-09-22T19:04:48.799Z,11.36
2022-09-22T19:07:36.536Z,11.37
2022-09-22T19:10:07.261Z,11.32
2022-09-22T19:12:39.851Z,11.30
2022-09-22T19:15:13.871Z,11.24
2022-09-22T19:17:45.261Z,11.28
2022-09-22T19:20:13.831Z,11.25
2022-09-22T19:22:40.804Z,11.22
2022-09-22T19:25:07.856Z,11.18
2022-09-22T19:27:35.195Z,11.16
2022-09-22T19:30:02.148Z,11.13
2022-09-22T19:32:29.399Z,11.07
2022-09-22T19:34:57.067Z,11.04
2022-09-22T19:37:25.003Z,11.01
2022-09-22T19:39:51.653Z,10.97
2022-09-22T19:42:21.918Z,10.92
2022-09-22T19:44:48.664Z,10.87
2022-09-22T19:47:15.943Z,10.83
2022-09-22T19:49:42.631Z,10.80
2022-09-22T19:52:09.679Z,10.78
2022-09-22T19:54:36.392Z,10.82
2022-09-22T19:57:03.193Z,10.80
2022-09-22T19:59:29.864Z,10.76
2022-09-22T20:01:56.878Z,10.76
2022-09-22T20:04:23.685Z,10.82
2022-09-22T20:06:50.616Z,10.82
2022-09-22T20:09:17.382Z,10.78
2022-09-22T20:11:47.463Z,10.75
2022-09-22T20:14:26.914Z,10.78
2022-09-22T20:16:56.096Z,10.74
2022-09-22T20:19:24.599Z,10.75
2022-09-22T20:21:52.246Z,10.75
2022-09-22T20:24:21.434Z,10.72
2022-09-22T20:26:48.125Z,10.71
2022-09-22T20:29:15.876Z,10.71
2022-09-22T20:31:42.887Z,10.73
2022-09-22T20:34:13.068Z,10.68
2022-09-22T20:36:39.944Z,10.61
2022-09-22T20:39:06.575Z,10.59
2022-09-22T20:41:33.232Z,10.60
2022-09-22T20:43:59.897Z,10.59
2022-09-22T20:46:26.662Z,10.54
2022-09-22T20:48:55.485Z,10.47
2022-09-22T20:51:23.407Z,10.40
2022-09-22T20:53:50.201Z,10.37
2022-09-22T20:56:17.112Z,10.38
2022-09-22T20:58:45.506Z,10.39
2022-09-22T21:01:14.349Z,10.36
2022-09-22T21:03:41.211Z,10.34
2022-09-22T21:06:09.536Z,10.30
2022-09-22T21:08:59.442Z,10.23
2022-09-22T21:11:27.868Z,10.18
2022-09-22T21:13:56.657Z,10.09
2022-09-22T21:16:23.361Z,10.02
2022-09-22T21:18:51.813Z,10.00
2022-09-22T21:21:22.861Z,9.93
2022-09-22T21:23:49.964Z,9.88
2022-09-22T21:26:17.498Z,9.87
2022-09-22T21:28:46.183Z,9.82
2022-09-22T21:31:14.887Z,9.74
2022-09-22T21:33:42.727Z,9.68
2022-09-22T21:36:16.853Z,9.65
2022-09-22T21:38:45.367Z,9.64
2022-09-22T21:41:17.501Z,9.59
2022-09-22T21:43:44.334Z,9.59
2022-09-22T21:46:15.699Z,9.55
2022-09-22T21:48:42.652Z,9.55
2022-09-22T21:51:12.649Z,9.54
2022-09-22T21:53:39.856Z,9.47
2022-09-22T21:56:10.675Z,9.45
2022-09-22T21:58:40.148Z,9.43
2022-09-22T22:01:11.038Z,9.44
2022-09-22T22:03:42.226Z,9.45
2022-09-22T22:06:16.240Z,9.47
2022-09-22T22:08:47.233Z,9.43
2022-09-22T22:11:22.479Z,9.38
2022-09-22T22:13:59.108Z,9.36
2022-09-22T22:16:30.463Z,9.37
2022-09-22T22:18:57.194Z,9.40
2022-09-22T22:21:26.184Z,9.35
2022-09-22T22:23:55.232Z,9.32
2022-09-22T22:26:23.794Z,9.37
2022-09-22T22:28:51.619Z,9.32
2022-09-22T22:31:20.168Z,9.30
2022-09-22T22:33:47.390Z,9.31
2022-09-22T22:36:15.943Z,9.25
2022-09-22T22:38:44.582Z,9.21
2022-09-22T22:41:16.465Z,9.17
2022-09-22T22:43:44.030Z,9.16
2022-09-22T22:46:12.773Z,9.18
2022-09-22T22:48:39.472Z,9.09
2022-09-22T22:51:12.835Z,9.06
2022-09-22T22:53:39.832Z,9.06
2022-09-22T22:56:10.121Z,9.01
2022-09-22T22:58:39.143Z,9.06
2022-09-22T23:01:30.220Z,9.02
2022-09-22T23:04:02.448Z,9.00
2022-09-22T23:06:40.292Z,8.99
2022-09-22T23:09:11.079Z,8.92
2022-09-22T23:11:40.001Z,8.91
2022-09-22T23:14:11.489Z,8.89
2022-09-22T23:16:40.670Z,8.92
2022-09-22T23:19:10.405Z,8.90
2022-09-22T23:21:37.318Z,8.88
2022-09-22T23:24:05.507Z,8.82
2022-09-22T23:26:32.641Z,8.79
2022-09-22T23:28:59.961Z,8.79
2022-09-22T23:31:26.746Z,8.69
2022-09-22T23:33:54.152Z,8.61
2022-09-22T23:36:22.869Z,8.63
2022-09-22T23:38:57.185Z,8.63
2022-09-22T23:41:24.433Z,8.53
2022-09-22T23:43:51.128Z,8.53
2022-09-22T23:46:18.175Z,8.39
2022-09-22T23:48:44.961Z,8.27
2022-09-22T23:51:11.723Z,8.27
2022-09-22T23:53:38.523Z,8.15
2022-09-22T23:56:06.831Z,8.13
2022-09-22T23:58:33.987Z,8.09
